sensor_id;sensor_type;location;lat;lon;timestamp;P1;durP1;ratioP1;P2;durP2;ratioP2
7531;SDS011;3807;49.030;8.714;2023-09-30T02:51:24;4.57;;;2.00;;
7531;SDS011;3807;49.030;8.714;2023-09-30T02:53:54;4.93;;;1.90;;
7531;SDS011;3807;49.030;8.714;2023-09-30T02:56:20;2.87;;;1.80;;
7531;SDS011;3807;49.030;8.714;2023-09-30T02:58:46;3.97;;;2.13;;
7531;SDS011;3807;49.030;8.714;2023-09-30T03:01:14;4.33;;;1.80;;
7531;SDS011;3807;49.030;8.714;2023-09-30T03:03:45;3.67;;;1.73;;
7531;SDS011;3807;49.030;8.714;2023-09-30T03:06:15;4.10;;;2.13;;
7531;SDS011;3807;49.030;8.714;2023-09-30T03:08:42;3.33;;;2.07;;
7531;SDS011;3807;49.030;8.714;2023-09-30T03:11:08;6.20;;;2.20;;
7531;SDS011;3807;49.030;8.714;2023-09-30T03:13:34;2.93;;;2.00;;
7531;SDS011;3807;49.030;8.714;2023-09-30T03:16:00;5.53;;;2.20;;
7531;SDS011;3807;49.030;8.714;2023-09-30T03:18:26;4.80;;;2.20;;
7531;SDS011;3807;49.030;8.714;2023-09-30T03:20:58;4.93;;;2.20;;
7531;SDS011;3807;49.030;8.714;2023-09-30T03:23:41;3.83;;;2.40;;
7531;SDS011;3807;49.030;8.714;2023-09-30T03:26:06;2.27;;;2.03;;
7531;SDS011;3807;49.030;8.714;2023-09-30T03:28:45;3.67;;;2.10;;
7531;SDS011;3807;49.030;8.714;2023-09-30T03:31:11;3.90;;;2.30;;
7531;SDS011;3807;49.030;8.714;2023-09-30T03:33:39;6.33;;;2.37;;
7531;SDS011;3807;49.030;8.714;2023-09-30T03:36:08;4.33;;;2.33;;
7531;SDS011;3807;49.030;8.714;2023-09-30T03:38:36;3.73;;;2.17;;
7531;SDS011;3807;49.030;8.714;2023-09-30T03:41:01;5.50;;;2.27;;
7531;SDS011;3807;49.030;8.714;2023-09-30T03:43:33;5.70;;;2.33;;
7531;SDS011;3807;49.030;8.714;2023-09-30T03:46:00;2.90;;;1.80;;
7531;SDS011;3807;49.030;8.714;2023-09-30T03:48:31;5.57;;;2.33;;
7531;SDS011;3807;49.030;8.714;2023-09-30T03:50:59;5.03;;;2.30;;
7531;SDS011;3807;49.030;8.714;2023-09-30T03:53:46;4.33;;;2.40;;
7531;SDS011;3807;49.030;8.714;2023-09-30T03:56:20;4.37;;;2.07;;
7531;SDS011;3807;49.030;8.714;2023-09-30T04:20:41;4.03;;;1.93;;
7531;SDS011;3807;49.030;8.714;2023-09-30T05:40:14;6.60;;;2.27;;
7531;SDS011;3807;49.030;8.714;2023-09-30T05:43:39;3.23;;;2.10;;
7531;SDS011;3807;49.030;8.714;2023-09-30T05:49:52;4.27;;;2.30;;
7531;SDS011;3807;49.030;8.714;2023-09-30T05:53:01;2.73;;;2.10;;
7531;SDS011;3807;49.030;8.714;2023-09-30T05:55:30;3.30;;;2.00;;
7531;SDS011;3807;49.030;8.714;2023-09-30T06:04:32;3.13;;;2.10;;
7531;SDS011;3807;49.030;8.714;2023-09-30T06:07:10;4.67;;;2.33;;
7531;SDS011;3807;49.030;8.714;2023-09-30T06:09:58;4.20;;;2.17;;
7531;SDS011;3807;49.030;8.714;2023-09-30T06:12:52;4.67;;;3.00;;
7531;SDS011;3807;49.030;8.714;2023-09-30T06:15:58;5.00;;;2.37;;
7531;SDS011;3807;49.030;8.714;2023-09-30T06:18:49;7.07;;;2.93;;
7531;SDS011;3807;49.030;8.714;2023-09-30T06:21:33;4.90;;;3.40;;
7531;SDS011;3807;49.030;8.714;2023-09-30T06:24:06;6.23;;;2.67;;
7531;SDS011;3807;49.030;8.714;2023-09-30T06:26:44;4.10;;;2.70;;
7531;SDS011;3807;49.030;8.714;2023-09-30T06:32:22;5.73;;;3.20;;
7531;SDS011;3807;49.030;8.714;2023-09-30T06:41:48;7.83;;;3.00;;
7531;SDS011;3807;49.030;8.714;2023-09-30T06:44:50;4.87;;;3.17;;
7531;SDS011;3807;49.030;8.714;2023-09-30T06:48:09;7.83;;;4.30;;
7531;SDS011;3807;49.030;8.714;2023-09-30T06:57:34;5.10;;;3.27;;
7531;SDS011;3807;49.030;8.714;2023-09-30T07:00:04;7.17;;;3.80;;
7531;SDS011;3807;49.030;8.714;2023-09-30T07:02:51;9.47;;;4.00;;
7531;SDS011;3807;49.030;8.714;2023-09-30T07:08:36;6.00;;;2.83;;
7531;SDS011;3807;49.030;8.714;2023-09-30T07:11:41;7.47;;;4.10;;
7531;SDS011;3807;49.030;8.714;2023-09-30T07:14:35;9.07;;;4.37;;
7531;SDS011;3807;49.030;8.714;2023-09-30T07:20:33;6.20;;;3.67;;
7531;SDS011;3807;49.030;8.714;2023-09-30T07:23:09;8.57;;;4.67;;
7531;SDS011;3807;49.030;8.714;2023-09-30T07:26:03;6.33;;;3.40;;
7531;SDS011;3807;49.030;8.714;2023-09-30T07:41:33;18.17;;;4.80;;
7531;SDS011;3807;49.030;8.714;2023-09-30T07:44:14;6.53;;;4.23;;
7531;SDS011;3807;49.030;8.714;2023-09-30T07:46:40;7.57;;;4.30;;
7531;SDS011;3807;49.030;8.714;2023-09-30T08:47:08;8.93;;;4.63;;
7531;SDS011;3807;49.030;8.714;2023-09-30T09:02:12;5.20;;;3.63;;
7531;SDS011;3807;49.030;8.714;2023-09-30T09:04:40;6.97;;;3.20;;
7531;SDS011;3807;49.030;8.714;2023-09-30T09:07:12;13.20;;;4.17;;
7531;SDS011;3807;49.030;8.714;2023-09-30T09:10:02;9.10;;;3.33;;
7531;SDS011;3807;49.030;8.714;2023-09-30T09:13:05;8.83;;;4.67;;
7531;SDS011;3807;49.030;8.714;2023-09-30T09:31:42;8.43;;;3.80;;
7531;SDS011;3807;49.030;8.714;2023-09-30T09:37:31;7.47;;;3.87;;
7531;SDS011;3807;49.030;8.714;2023-09-30T09:42:59;5.53;;;3.20;;
7531;SDS011;3807;49.030;8.714;2023-09-30T09:45:48;10.87;;;4.33;;
7531;SDS011;3807;49.030;8.714;2023-09-30T09:48:19;7.70;;;3.60;;
7531;SDS011;3807;49.030;8.714;2023-09-30T09:50:45;6.50;;;3.57;;
7531;SDS011;3807;49.030;8.714;2023-09-30T10:10:52;7.73;;;3.77;;
7531;SDS011;3807;49.030;8.714;2023-09-30T10:16:51;8.53;;;3.40;;
7531;SDS011;3807;49.030;8.714;2023-09-30T10:25:53;11.97;;;3.73;;
7531;SDS011;3807;49.030;8.714;2023-09-30T10:28:46;13.97;;;3.53;;
7531;SDS011;3807;49.030;8.714;2023-09-30T10:31:22;10.23;;;3.70;;
7531;SDS011;3807;49.030;8.714;2023-09-30T10:36:58;6.03;;;3.37;;
7531;SDS011;3807;49.030;8.714;2023-09-30T10:42:50;6.53;;;3.07;;
7531;SDS011;3807;49.030;8.714;2023-09-30T10:50:54;6.10;;;3.10;;
7531;SDS011;3807;49.030;8.714;2023-09-30T10:53:27;8.00;;;3.37;;
7531;SDS011;3807;49.030;8.714;2023-09-30T10:56:08;5.50;;;3.13;;
7531;SDS011;3807;49.030;8.714;2023-09-30T10:58:52;6.93;;;3.10;;
7531;SDS011;3807;49.030;8.714;2023-09-30T11:01:55;7.17;;;3.30;;
7531;SDS011;3807;49.030;8.714;2023-09-30T11:04:22;6.10;;;2.97;;
7531;SDS011;3807;49.030;8.714;2023-09-30T11:09:45;7.37;;;3.37;;
7531;SDS011;3807;49.030;8.714;2023-09-30T11:12:18;5.73;;;3.00;;
7531;SDS011;3807;49.030;8.714;2023-09-30T11:14:58;5.80;;;3.00;;
7531;SDS011;3807;49.030;8.714;2023-09-30T11:17:30;8.57;;;3.57;;
7531;SDS011;3807;49.030;8.714;2023-09-30T11:19:55;6.50;;;3.27;;
7531;SDS011;3807;49.030;8.714;2023-09-30T11:22:31;6.57;;;2.97;;
7531;SDS011;3807;49.030;8.714;2023-09-30T11:24:59;5.97;;;2.87;;
7531;SDS011;3807;49.030;8.714;2023-09-30T11:27:40;5.60;;;3.10;;
7531;SDS011;3807;49.030;8.714;2023-09-30T11:30:06;6.43;;;3.30;;
7531;SDS011;3807;49.030;8.714;2023-09-30T11:32:58;8.40;;;3.87;;
7531;SDS011;3807;49.030;8.714;2023-09-30T11:35:36;7.57;;;3.47;;
7531;SDS011;3807;49.030;8.714;2023-09-30T11:38:10;9.15;;;3.33;;
7531;SDS011;3807;49.030;8.714;2023-09-30T11:43:35;6.85;;;3.33;;
7531;SDS011;3807;49.030;8.714;2023-09-30T11:46:21;8.68;;;3.62;;
7531;SDS011;3807;49.030;8.714;2023-09-30T11:48:56;6.20;;;3.25;;
7531;SDS011;3807;49.030;8.714;2023-09-30T11:51:42;6.62;;;3.12;;
7531;SDS011;3807;49.030;8.714;2023-09-30T11:54:17;7.68;;;3.28;;
7531;SDS011;3807;49.030;8.714;2023-09-30T11:57:00;6.80;;;3.20;;
7531;SDS011;3807;49.030;8.714;2023-09-30T11:59:52;5.97;;;2.97;;
7531;SDS011;3807;49.030;8.714;2023-09-30T12:02:28;7.25;;;3.35;;
7531;SDS011;3807;49.030;8.714;2023-09-30T12:05:24;5.35;;;2.87;;
7531;SDS011;3807;49.030;8.714;2023-09-30T12:08:09;6.35;;;3.25;;
7531;SDS011;3807;49.030;8.714;2023-09-30T12:10:41;9.82;;;3.78;;
7531;SDS011;3807;49.030;8.714;2023-09-30T12:13:12;8.27;;;3.55;;
7531;SDS011;3807;49.030;8.714;2023-09-30T12:15:50;7.95;;;3.67;;
7531;SDS011;3807;49.030;8.714;2023-09-30T12:18:18;6.05;;;2.80;;
7531;SDS011;3807;49.030;8.714;2023-09-30T12:21:10;9.00;;;3.58;;
7531;SDS011;3807;49.030;8.714;2023-09-30T12:24:03;6.80;;;3.67;;
7531;SDS011;3807;49.030;8.714;2023-09-30T12:26:52;5.50;;;2.97;;
7531;SDS011;3807;49.030;8.714;2023-09-30T12:29:23;9.20;;;3.42;;
7531;SDS011;3807;49.030;8.714;2023-09-30T12:31:56;7.82;;;3.47;;
7531;SDS011;3807;49.030;8.714;2023-09-30T12:37:15;6.03;;;3.20;;
7531;SDS011;3807;49.030;8.714;2023-09-30T12:39:56;11.65;;;3.65;;
7531;SDS011;3807;49.030;8.714;2023-09-30T12:42:21;10.90;;;3.85;;
7531;SDS011;3807;49.030;8.714;2023-09-30T12:45:00;7.18;;;3.60;;
7531;SDS011;3807;49.030;8.714;2023-09-30T12:47:35;8.23;;;3.58;;
7531;SDS011;3807;49.030;8.714;2023-09-30T12:50:24;5.95;;;3.20;;
7531;SDS011;3807;49.030;8.714;2023-09-30T12:52:58;8.70;;;3.55;;
7531;SDS011;3807;49.030;8.714;2023-09-30T12:55:27;10.80;;;4.65;;
7531;SDS011;3807;49.030;8.714;2023-09-30T12:58:00;7.30;;;3.55;;
7531;SDS011;3807;49.030;8.714;2023-09-30T13:00:34;6.80;;;3.70;;
7531;SDS011;3807;49.030;8.714;2023-09-30T13:03:03;8.80;;;3.80;;
7531;SDS011;3807;49.030;8.714;2023-09-30T13:05:43;8.68;;;4.18;;
7531;SDS011;3807;49.030;8.714;2023-09-30T13:08:19;7.28;;;3.78;;
7531;SDS011;3807;49.030;8.714;2023-09-30T13:11:05;6.78;;;3.60;;
7531;SDS011;3807;49.030;8.714;2023-09-30T13:13:57;9.38;;;3.83;;
7531;SDS011;3807;49.030;8.714;2023-09-30T13:16:28;10.38;;;4.40;;
7531;SDS011;3807;49.030;8.714;2023-09-30T13:18:56;7.12;;;3.70;;
7531;SDS011;3807;49.030;8.714;2023-09-30T13:21:24;9.43;;;3.67;;
7531;SDS011;3807;49.030;8.714;2023-09-30T13:23:53;8.43;;;3.95;;
7531;SDS011;3807;49.030;8.714;2023-09-30T13:26:45;8.13;;;3.72;;
7531;SDS011;3807;49.030;8.714;2023-09-30T13:29:11;8.45;;;3.70;;
7531;SDS011;3807;49.030;8.714;2023-09-30T13:31:58;9.18;;;4.05;;
7531;SDS011;3807;49.030;8.714;2023-09-30T13:40:39;7.18;;;3.95;;
7531;SDS011;3807;49.030;8.714;2023-09-30T13:43:37;7.97;;;3.72;;
7531;SDS011;3807;49.030;8.714;2023-09-30T13:46:08;8.10;;;4.18;;
7531;SDS011;3807;49.030;8.714;2023-09-30T13:48:39;8.32;;;4.07;;
7531;SDS011;3807;49.030;8.714;2023-09-30T13:51:10;7.68;;;4.32;;
7531;SDS011;3807;49.030;8.714;2023-09-30T13:56:46;8.20;;;3.62;;
7531;SDS011;3807;49.030;8.714;2023-09-30T13:59:33;7.57;;;4.22;;
7531;SDS011;3807;49.030;8.714;2023-09-30T14:05:36;8.90;;;4.07;;
7531;SDS011;3807;49.030;8.714;2023-09-30T14:08:27;8.57;;;4.60;;
7531;SDS011;3807;49.030;8.714;2023-09-30T14:11:23;10.80;;;4.72;;
7531;SDS011;3807;49.030;8.714;2023-09-30T14:14:03;7.82;;;3.55;;
7531;SDS011;3807;49.030;8.714;2023-09-30T14:16:34;8.38;;;4.15;;
7531;SDS011;3807;49.030;8.714;2023-09-30T14:19:19;8.52;;;4.32;;
7531;SDS011;3807;49.030;8.714;2023-09-30T14:21:51;9.48;;;4.10;;
7531;SDS011;3807;49.030;8.714;2023-09-30T14:28:05;9.32;;;4.22;;
7531;SDS011;3807;49.030;8.714;2023-09-30T14:33:23;8.43;;;3.95;;
7531;SDS011;3807;49.030;8.714;2023-09-30T14:47:07;9.15;;;4.68;;
7531;SDS011;3807;49.030;8.714;2023-09-30T14:56:58;10.55;;;4.80;;
7531;SDS011;3807;49.030;8.714;2023-09-30T15:03:10;7.60;;;4.75;;
7531;SDS011;3807;49.030;8.714;2023-09-30T15:05:47;7.80;;;4.10;;
7531;SDS011;3807;49.030;8.714;2023-09-30T15:11:02;7.35;;;3.87;;
7531;SDS011;3807;49.030;8.714;2023-09-30T15:13:36;8.18;;;4.22;;
7531;SDS011;3807;49.030;8.714;2023-09-30T15:16:19;7.57;;;4.35;;
7531;SDS011;3807;49.030;8.714;2023-09-30T15:19:03;10.00;;;4.45;;
7531;SDS011;3807;49.030;8.714;2023-09-30T15:21:48;9.48;;;4.22;;
7531;SDS011;3807;49.030;8.714;2023-09-30T15:27:17;8.65;;;4.30;;
7531;SDS011;3807;49.030;8.714;2023-09-30T15:29:49;8.35;;;4.45;;
7531;SDS011;3807;49.030;8.714;2023-09-30T15:32:20;7.53;;;4.32;;
7531;SDS011;3807;49.030;8.714;2023-09-30T15:34:47;8.30;;;4.30;;
7531;SDS011;3807;49.030;8.714;2023-09-30T15:37:18;9.02;;;4.50;;
7531;SDS011;3807;49.030;8.714;2023-09-30T15:39:52;8.25;;;4.10;;
7531;SDS011;3807;49.030;8.714;2023-09-30T15:42:20;7.57;;;4.53;;
7531;SDS011;3807;49.030;8.714;2023-09-30T15:45:04;9.18;;;4.85;;
7531;SDS011;3807;49.030;8.714;2023-09-30T15:47:32;8.85;;;3.87;;
7531;SDS011;3807;49.030;8.714;2023-09-30T15:50:00;8.55;;;4.72;;
7531;SDS011;3807;49.030;8.714;2023-09-30T15:52:43;9.02;;;4.25;;
7531;SDS011;3807;49.030;8.714;2023-09-30T15:55:21;9.40;;;4.10;;
7531;SDS011;3807;49.030;8.714;2023-09-30T15:57:49;9.70;;;3.75;;
7531;SDS011;3807;49.030;8.714;2023-09-30T16:00:19;6.72;;;4.22;;
7531;SDS011;3807;49.030;8.714;2023-09-30T16:02:55;7.53;;;4.10;;
7531;SDS011;3807;49.030;8.714;2023-09-30T16:05:22;10.25;;;4.70;;
7531;SDS011;3807;49.030;8.714;2023-09-30T16:07:50;11.77;;;4.93;;
7531;SDS011;3807;49.030;8.714;2023-09-30T16:13:14;9.10;;;4.60;;
7531;SDS011;3807;49.030;8.714;2023-09-30T16:15:39;8.70;;;4.53;;
7531;SDS011;3807;49.030;8.714;2023-09-30T16:18:10;8.10;;;4.30;;
7531;SDS011;3807;49.030;8.714;2023-09-30T16:20:48;10.90;;;4.47;;
7531;SDS011;3807;49.030;8.714;2023-09-30T16:23:20;7.35;;;4.50;;
7531;SDS011;3807;49.030;8.714;2023-09-30T16:25:49;11.02;;;4.62;;
7531;SDS011;3807;49.030;8.714;2023-09-30T16:28:17;9.60;;;4.90;;
7531;SDS011;3807;49.030;8.714;2023-09-30T16:30:45;10.45;;;4.68;;
7531;SDS011;3807;49.030;8.714;2023-09-30T16:33:10;9.15;;;5.30;;
7531;SDS011;3807;49.030;8.714;2023-09-30T16:35:44;12.00;;;6.68;;
7531;SDS011;3807;49.030;8.714;2023-09-30T16:38:10;10.55;;;5.50;;
7531;SDS011;3807;49.030;8.714;2023-09-30T16:40:51;9.60;;;5.05;;
7531;SDS011;3807;49.030;8.714;2023-09-30T16:43:30;10.68;;;4.60;;
7531;SDS011;3807;49.030;8.714;2023-09-30T16:45:59;11.82;;;4.97;;
7531;SDS011;3807;49.030;8.714;2023-09-30T16:48:34;9.13;;;5.07;;
7531;SDS011;3807;49.030;8.714;2023-09-30T16:54:05;11.38;;;4.97;;
7531;SDS011;3807;49.030;8.714;2023-09-30T16:56:33;8.35;;;4.15;;
7531;SDS011;3807;49.030;8.714;2023-09-30T16:59:01;10.82;;;5.40;;
7531;SDS011;3807;49.030;8.714;2023-09-30T17:01:32;11.45;;;5.18;;
7531;SDS011;3807;49.030;8.714;2023-09-30T17:04:02;18.05;;;5.75;;
7531;SDS011;3807;49.030;8.714;2023-09-30T17:06:28;8.85;;;5.07;;
7531;SDS011;3807;49.030;8.714;2023-09-30T17:08:55;9.13;;;4.72;;
7531;SDS011;3807;49.030;8.714;2023-09-30T17:11:21;13.62;;;4.97;;
7531;SDS011;3807;49.030;8.714;2023-09-30T17:13:49;10.50;;;5.22;;
7531;SDS011;3807;49.030;8.714;2023-09-30T17:16:18;9.93;;;5.22;;
7531;SDS011;3807;49.030;8.714;2023-09-30T17:18:59;9.13;;;5.50;;
7531;SDS011;3807;49.030;8.714;2023-09-30T17:21:39;9.40;;;4.53;;
7531;SDS011;3807;49.030;8.714;2023-09-30T17:24:40;12.82;;;5.03;;
7531;SDS011;3807;49.030;8.714;2023-09-30T17:27:13;9.70;;;5.28;;
7531;SDS011;3807;49.030;8.714;2023-09-30T17:32:50;12.25;;;5.43;;
7531;SDS011;3807;49.030;8.714;2023-09-30T17:35:30;10.15;;;5.05;;
7531;SDS011;3807;49.030;8.714;2023-09-30T17:38:56;9.68;;;4.93;;
7531;SDS011;3807;49.030;8.714;2023-09-30T17:41:22;11.52;;;4.53;;
7531;SDS011;3807;49.030;8.714;2023-09-30T17:43:48;10.25;;;5.12;;
7531;SDS011;3807;49.030;8.714;2023-09-30T17:46:14;10.00;;;5.00;;
7531;SDS011;3807;49.030;8.714;2023-09-30T17:48:45;9.38;;;4.70;;
7531;SDS011;3807;49.030;8.714;2023-09-30T17:51:15;9.38;;;4.70;;
7531;SDS011;3807;49.030;8.714;2023-09-30T17:53:50;9.98;;;5.03;;
7531;SDS011;3807;49.030;8.714;2023-09-30T17:56:18;10.38;;;5.18;;
7531;SDS011;3807;49.030;8.714;2023-09-30T17:58:45;12.07;;;5.53;;
7531;SDS011;3807;49.030;8.714;2023-09-30T18:01:12;9.55;;;5.10;;
7531;SDS011;3807;49.030;8.714;2023-09-30T18:03:43;9.75;;;5.68;;
7531;SDS011;3807;49.030;8.714;2023-09-30T18:06:12;10.40;;;5.65;;
7531;SDS011;3807;49.030;8.714;2023-09-30T18:08:41;9.65;;;4.68;;
7531;SDS011;3807;49.030;8.714;2023-09-30T18:11:08;12.50;;;5.65;;
7531;SDS011;3807;49.030;8.714;2023-09-30T18:13:35;11.57;;;5.37;;
7531;SDS011;3807;49.030;8.714;2023-09-30T18:16:01;9.15;;;5.25;;
7531;SDS011;3807;49.030;8.714;2023-09-30T18:18:27;10.55;;;5.30;;
7531;SDS011;3807;49.030;8.714;2023-09-30T18:20:54;12.98;;;5.70;;
7531;SDS011;3807;49.030;8.714;2023-09-30T18:23:19;10.77;;;5.60;;
7531;SDS011;3807;49.030;8.714;2023-09-30T18:25:45;9.35;;;5.25;;
7531;SDS011;3807;49.030;8.714;2023-09-30T18:28:11;12.32;;;5.90;;
7531;SDS011;3807;49.030;8.714;2023-09-30T18:30:43;10.32;;;5.80;;
7531;SDS011;3807;49.030;8.714;2023-09-30T18:33:10;9.02;;;5.43;;
7531;SDS011;3807;49.030;8.714;2023-09-30T18:35:37;10.57;;;5.65;;
7531;SDS011;3807;49.030;8.714;2023-09-30T18:38:03;13.95;;;5.93;;
7531;SDS011;3807;49.030;8.714;2023-09-30T18:40:32;12.37;;;5.55;;
7531;SDS011;3807;49.030;8.714;2023-09-30T18:42:59;14.23;;;5.82;;
7531;SDS011;3807;49.030;8.714;2023-09-30T18:45:24;10.55;;;5.68;;
7531;SDS011;3807;49.030;8.714;2023-09-30T18:47:50;11.55;;;5.43;;
7531;SDS011;3807;49.030;8.714;2023-09-30T18:50:18;12.63;;;5.18;;
7531;SDS011;3807;49.030;8.714;2023-09-30T18:52:43;10.27;;;5.47;;
7531;SDS011;3807;49.030;8.714;2023-09-30T18:55:09;8.65;;;5.32;;
7531;SDS011;3807;49.030;8.714;2023-09-30T18:57:35;8.73;;;5.22;;
7531;SDS011;3807;49.030;8.714;2023-09-30T19:00:00;8.60;;;5.20;;
7531;SDS011;3807;49.030;8.714;2023-09-30T19:02:26;10.02;;;4.97;;
7531;SDS011;3807;49.030;8.714;2023-09-30T19:04:51;9.95;;;5.62;;
7531;SDS011;3807;49.030;8.714;2023-09-30T19:07:17;13.77;;;6.18;;
7531;SDS011;3807;49.030;8.714;2023-09-30T19:09:43;9.65;;;5.30;;
7531;SDS011;3807;49.030;8.714;2023-09-30T19:12:11;11.43;;;5.65;;
7531;SDS011;3807;49.030;8.714;2023-09-30T19:14:36;9.20;;;5.20;;
7531;SDS011;3807;49.030;8.714;2023-09-30T19:17:01;12.10;;;5.20;;
7531;SDS011;3807;49.030;8.714;2023-09-30T19:19:27;10.50;;;5.35;;
7531;SDS011;3807;49.030;8.714;2023-09-30T19:21:52;10.80;;;5.35;;
7531;SDS011;3807;49.030;8.714;2023-09-30T19:24:18;12.57;;;5.55;;
7531;SDS011;3807;49.030;8.714;2023-09-30T19:26:47;10.68;;;5.60;;
7531;SDS011;3807;49.030;8.714;2023-09-30T19:29:12;9.73;;;6.18;;
7531;SDS011;3807;49.030;8.714;2023-09-30T19:31:38;13.68;;;6.07;;
7531;SDS011;3807;49.030;8.714;2023-09-30T19:34:03;15.40;;;6.87;;
7531;SDS011;3807;49.030;8.714;2023-09-30T19:36:29;13.73;;;7.75;;
7531;SDS011;3807;49.030;8.714;2023-09-30T19:38:55;9.60;;;5.72;;
7531;SDS011;3807;49.030;8.714;2023-09-30T19:41:20;9.30;;;6.18;;
7531;SDS011;3807;49.030;8.714;2023-09-30T19:43:47;10.85;;;6.40;;
7531;SDS011;3807;49.030;8.714;2023-09-30T19:46:12;11.75;;;6.22;;
7531;SDS011;3807;49.030;8.714;2023-09-30T19:58:00;11.45;;;5.37;;
7531;SDS011;3807;49.030;8.714;2023-09-30T20:06:49;10.52;;;6.12;;
7531;SDS011;3807;49.030;8.714;2023-09-30T20:16:38;14.95;;;6.07;;
7531;SDS011;3807;49.030;8.714;2023-09-30T20:30:36;13.00;;;5.97;;
7531;SDS011;3807;49.030;8.714;2023-09-30T20:34:01;10.73;;;6.18;;
7531;SDS011;3807;49.030;8.714;2023-09-30T20:47:38;9.90;;;5.22;;
7531;SDS011;3807;49.030;8.714;2023-09-30T20:54:22;15.02;;;5.93;;
7531;SDS011;3807;49.030;8.714;2023-09-30T20:57:44;9.82;;;5.50;;
7531;SDS011;3807;49.030;8.714;2023-09-30T21:04:04;10.95;;;5.32;;
7531;SDS011;3807;49.030;8.714;2023-09-30T21:06:58;13.57;;;5.93;;
7531;SDS011;3807;49.030;8.714;2023-09-30T21:09:46;10.45;;;5.78;;
7531;SDS011;3807;49.030;8.714;2023-09-30T21:23:03;10.27;;;5.35;;
7531;SDS011;3807;49.030;8.714;2023-09-30T21:39:51;12.45;;;5.97;;
7531;SDS011;3807;49.030;8.714;2023-09-30T21:42:25;11.40;;;5.53;;
7531;SDS011;3807;49.030;8.714;2023-09-30T21:52:52;7.10;;;5.00;;
7531;SDS011;3807;49.030;8.714;2023-09-30T22:35:50;12.83;;;5.70;;
7531;SDS011;3807;49.030;8.714;2023-09-30T22:39:11;10.77;;;5.17;;
7531;SDS011;3807;49.030;8.714;2023-09-30T23:03:40;13.50;;;5.83;;
